sensor_id;sensor_type;location;lat;lon;timestamp;P1;durP1;ratioP1;P2;durP2;ratioP2
35239;SDS011;21376;50.954;4.716;2023-03-01T00:01:53;38.90;;;22.33;;
35239;SDS011;21376;50.954;4.716;2023-03-01T00:04:23;38.97;;;21.92;;
35239;SDS011;21376;50.954;4.716;2023-03-01T00:09:21;37.88;;;21.65;;
35239;SDS011;21376;50.954;4.716;2023-03-01T00:11:50;34.83;;;20.90;;
35239;SDS011;21376;50.954;4.716;2023-03-01T00:14:19;39.13;;;20.48;;
35239;SDS011;21376;50.954;4.716;2023-03-01T00:16:46;39.45;;;20.42;;
35239;SDS011;21376;50.954;4.716;2023-03-01T00:19:16;35.33;;;19.58;;
35239;SDS011;21376;50.954;4.716;2023-03-01T00:21:46;34.85;;;19.88;;
35239;SDS011;21376;50.954;4.716;2023-03-01T00:24:14;39.53;;;20.45;;
35239;SDS011;21376;50.954;4.716;2023-03-01T00:26:42;29.92;;;19.15;;
35239;SDS011;21376;50.954;4.716;2023-03-01T00:31:40;33.58;;;19.27;;
35239;SDS011;21376;50.954;4.716;2023-03-01T00:36:35;36.42;;;20.73;;
35239;SDS011;21376;50.954;4.716;2023-03-01T00:41:33;38.92;;;19.40;;
35239;SDS011;21376;50.954;4.716;2023-03-01T00:43:59;37.75;;;20.73;;
35239;SDS011;21376;50.954;4.716;2023-03-01T00:48:56;36.20;;;20.27;;
35239;SDS011;21376;50.954;4.716;2023-03-01T00:53:55;39.13;;;20.00;;
35239;SDS011;21376;50.954;4.716;2023-03-01T00:56:24;36.90;;;19.58;;
35239;SDS011;21376;50.954;4.716;2023-03-01T00:58:50;40.17;;;21.10;;
35239;SDS011;21376;50.954;4.716;2023-03-01T01:01:27;37.75;;;20.40;;
35239;SDS011;21376;50.954;4.716;2023-03-01T01:04:00;39.25;;;20.23;;
35239;SDS011;21376;50.954;4.716;2023-03-01T01:06:35;35.00;;;17.67;;
35239;SDS011;21376;50.954;4.716;2023-03-01T01:09:05;32.72;;;19.17;;
35239;SDS011;21376;50.954;4.716;2023-03-01T01:11:35;35.22;;;20.50;;
35239;SDS011;21376;50.954;4.716;2023-03-01T01:14:07;34.03;;;19.58;;
35239;SDS011;21376;50.954;4.716;2023-03-01T01:16:36;35.25;;;20.05;;
35239;SDS011;21376;50.954;4.716;2023-03-01T01:19:05;36.28;;;18.92;;
35239;SDS011;21376;50.954;4.716;2023-03-01T01:21:47;35.17;;;18.75;;
35239;SDS011;21376;50.954;4.716;2023-03-01T01:24:16;36.30;;;20.35;;
35239;SDS011;21376;50.954;4.716;2023-03-01T01:26:48;38.53;;;19.92;;
35239;SDS011;21376;50.954;4.716;2023-03-01T01:29:18;36.53;;;19.67;;
35239;SDS011;21376;50.954;4.716;2023-03-01T01:31:46;34.78;;;18.92;;
35239;SDS011;21376;50.954;4.716;2023-03-01T01:36:49;34.97;;;18.17;;
35239;SDS011;21376;50.954;4.716;2023-03-01T01:41:48;32.85;;;18.17;;
35239;SDS011;21376;50.954;4.716;2023-03-01T01:44:22;31.95;;;17.70;;
35239;SDS011;21376;50.954;4.716;2023-03-01T01:49:47;33.53;;;17.02;;
35239;SDS011;21376;50.954;4.716;2023-03-01T01:52:23;34.42;;;16.70;;
35239;SDS011;21376;50.954;4.716;2023-03-01T01:55:04;34.05;;;16.35;;
35239;SDS011;21376;50.954;4.716;2023-03-01T01:57:40;33.35;;;17.10;;
35239;SDS011;21376;50.954;4.716;2023-03-01T02:00:11;33.03;;;17.15;;
35239;SDS011;21376;50.954;4.716;2023-03-01T02:02:44;28.70;;;16.00;;
35239;SDS011;21376;50.954;4.716;2023-03-01T02:08:16;31.45;;;18.10;;
35239;SDS011;21376;50.954;4.716;2023-03-01T02:10:45;30.65;;;17.25;;
35239;SDS011;21376;50.954;4.716;2023-03-01T02:13:16;30.15;;;16.08;;
35239;SDS011;21376;50.954;4.716;2023-03-01T02:15:48;31.05;;;16.75;;
35239;SDS011;21376;50.954;4.716;2023-03-01T02:18:17;31.58;;;16.75;;
35239;SDS011;21376;50.954;4.716;2023-03-01T02:23:27;28.45;;;15.55;;
35239;SDS011;21376;50.954;4.716;2023-03-01T02:28:53;27.13;;;15.70;;
35239;SDS011;21376;50.954;4.716;2023-03-01T02:34:07;30.67;;;16.55;;
35239;SDS011;21376;50.954;4.716;2023-03-01T02:39:40;37.53;;;18.13;;
35239;SDS011;21376;50.954;4.716;2023-03-01T02:42:15;33.63;;;16.48;;
35239;SDS011;21376;50.954;4.716;2023-03-01T02:44:48;32.95;;;16.95;;
35239;SDS011;21376;50.954;4.716;2023-03-01T02:47:16;28.60;;;16.17;;
35239;SDS011;21376;50.954;4.716;2023-03-01T02:49:45;29.55;;;16.77;;
35239;SDS011;21376;50.954;4.716;2023-03-01T02:52:21;33.25;;;16.83;;
35239;SDS011;21376;50.954;4.716;2023-03-01T02:55:25;31.95;;;16.40;;
35239;SDS011;21376;50.954;4.716;2023-03-01T03:00:26;35.20;;;18.25;;
35239;SDS011;21376;50.954;4.716;2023-03-01T03:02:59;32.72;;;17.30;;
35239;SDS011;21376;50.954;4.716;2023-03-01T03:05:29;30.95;;;17.63;;
35239;SDS011;21376;50.954;4.716;2023-03-01T03:08:00;34.95;;;18.00;;
35239;SDS011;21376;50.954;4.716;2023-03-01T03:10:32;32.70;;;17.15;;
35239;SDS011;21376;50.954;4.716;2023-03-01T03:13:03;31.88;;;16.27;;
35239;SDS011;21376;50.954;4.716;2023-03-01T03:15:33;30.65;;;16.80;;
35239;SDS011;21376;50.954;4.716;2023-03-01T03:18:01;34.50;;;16.00;;
35239;SDS011;21376;50.954;4.716;2023-03-01T03:20:32;33.00;;;19.10;;
35239;SDS011;21376;50.954;4.716;2023-03-01T03:22:59;31.00;;;16.45;;
35239;SDS011;21376;50.954;4.716;2023-03-01T03:25:26;37.55;;;17.63;;
35239;SDS011;21376;50.954;4.716;2023-03-01T03:27:54;29.77;;;16.33;;
35239;SDS011;21376;50.954;4.716;2023-03-01T03:30:28;30.73;;;17.25;;
35239;SDS011;21376;50.954;4.716;2023-03-01T03:36:16;30.48;;;16.88;;
35239;SDS011;21376;50.954;4.716;2023-03-01T03:41:13;31.83;;;17.00;;
35239;SDS011;21376;50.954;4.716;2023-03-01T03:43:42;30.10;;;16.58;;
35239;SDS011;21376;50.954;4.716;2023-03-01T03:46:10;35.80;;;17.02;;
35239;SDS011;21376;50.954;4.716;2023-03-01T03:48:40;34.60;;;18.15;;
35239;SDS011;21376;50.954;4.716;2023-03-01T03:51:15;31.98;;;16.55;;
35239;SDS011;21376;50.954;4.716;2023-03-01T03:58:48;31.63;;;16.55;;
35239;SDS011;21376;50.954;4.716;2023-03-01T04:01:16;29.48;;;16.70;;
35239;SDS011;21376;50.954;4.716;2023-03-01T04:03:42;36.78;;;16.92;;
35239;SDS011;21376;50.954;4.716;2023-03-01T04:16:23;30.48;;;16.30;;
35239;SDS011;21376;50.954;4.716;2023-03-01T04:21:19;26.73;;;15.55;;
35239;SDS011;21376;50.954;4.716;2023-03-01T04:23:45;31.05;;;16.55;;
35239;SDS011;21376;50.954;4.716;2023-03-01T04:26:13;30.83;;;16.52;;
35239;SDS011;21376;50.954;4.716;2023-03-01T04:28:41;26.08;;;15.32;;
35239;SDS011;21376;50.954;4.716;2023-03-01T04:31:26;27.38;;;14.93;;
35239;SDS011;21376;50.954;4.716;2023-03-01T04:33:55;29.95;;;16.50;;
35239;SDS011;21376;50.954;4.716;2023-03-01T04:38:51;28.40;;;16.45;;
35239;SDS011;21376;50.954;4.716;2023-03-01T04:41:18;32.88;;;15.88;;
35239;SDS011;21376;50.954;4.716;2023-03-01T04:43:48;28.38;;;15.75;;
35239;SDS011;21376;50.954;4.716;2023-03-01T04:46:17;32.38;;;16.35;;
35239;SDS011;21376;50.954;4.716;2023-03-01T04:48:55;26.23;;;15.32;;
35239;SDS011;21376;50.954;4.716;2023-03-01T04:51:24;30.95;;;15.60;;
35239;SDS011;21376;50.954;4.716;2023-03-01T04:53:52;32.15;;;15.75;;
35239;SDS011;21376;50.954;4.716;2023-03-01T04:56:25;31.02;;;15.25;;
35239;SDS011;21376;50.954;4.716;2023-03-01T04:58:53;29.75;;;15.30;;
35239;SDS011;21376;50.954;4.716;2023-03-01T05:01:26;30.95;;;15.85;;
35239;SDS011;21376;50.954;4.716;2023-03-01T05:03:53;30.25;;;16.15;;
35239;SDS011;21376;50.954;4.716;2023-03-01T05:06:19;37.88;;;15.73;;
35239;SDS011;21376;50.954;4.716;2023-03-01T05:08:46;32.63;;;16.38;;
35239;SDS011;21376;50.954;4.716;2023-03-01T05:16:41;38.08;;;17.55;;
35239;SDS011;21376;50.954;4.716;2023-03-01T05:19:10;30.60;;;16.52;;
35239;SDS011;21376;50.954;4.716;2023-03-01T05:21:43;34.00;;;17.37;;
35239;SDS011;21376;50.954;4.716;2023-03-01T05:27:02;33.42;;;17.55;;
35239;SDS011;21376;50.954;4.716;2023-03-01T05:29:28;31.67;;;16.83;;
35239;SDS011;21376;50.954;4.716;2023-03-01T05:31:59;34.42;;;17.27;;
35239;SDS011;21376;50.954;4.716;2023-03-01T05:34:33;41.47;;;19.75;;
35239;SDS011;21376;50.954;4.716;2023-03-01T05:39:32;37.17;;;18.25;;
35239;SDS011;21376;50.954;4.716;2023-03-01T05:41:59;32.15;;;16.88;;
35239;SDS011;21376;50.954;4.716;2023-03-01T05:44:27;46.03;;;22.42;;
35239;SDS011;21376;50.954;4.716;2023-03-01T05:49:25;42.30;;;19.00;;
35239;SDS011;21376;50.954;4.716;2023-03-01T05:51:58;38.95;;;19.38;;
35239;SDS011;21376;50.954;4.716;2023-03-01T05:54:26;41.38;;;19.02;;
35239;SDS011;21376;50.954;4.716;2023-03-01T05:56:55;35.45;;;17.70;;
35239;SDS011;21376;50.954;4.716;2023-03-01T05:59:24;31.10;;;15.68;;
35239;SDS011;21376;50.954;4.716;2023-03-01T06:01:50;32.30;;;17.38;;
35239;SDS011;21376;50.954;4.716;2023-03-01T06:04:17;31.20;;;16.48;;
35239;SDS011;21376;50.954;4.716;2023-03-01T06:09:16;41.88;;;18.15;;
35239;SDS011;21376;50.954;4.716;2023-03-01T06:11:42;32.45;;;17.95;;
35239;SDS011;21376;50.954;4.716;2023-03-01T06:14:11;37.55;;;18.35;;
35239;SDS011;21376;50.954;4.716;2023-03-01T06:16:45;38.45;;;18.98;;
35239;SDS011;21376;50.954;4.716;2023-03-01T06:21:46;37.05;;;18.23;;
35239;SDS011;21376;50.954;4.716;2023-03-01T06:24:12;38.55;;;17.27;;
35239;SDS011;21376;50.954;4.716;2023-03-01T06:26:41;46.08;;;18.20;;
35239;SDS011;21376;50.954;4.716;2023-03-01T06:29:17;46.13;;;20.05;;
35239;SDS011;21376;50.954;4.716;2023-03-01T06:31:45;43.53;;;19.88;;
35239;SDS011;21376;50.954;4.716;2023-03-01T06:34:12;30.23;;;17.35;;
35239;SDS011;21376;50.954;4.716;2023-03-01T06:36:38;33.30;;;17.20;;
35239;SDS011;21376;50.954;4.716;2023-03-01T06:39:07;37.65;;;18.45;;
35239;SDS011;21376;50.954;4.716;2023-03-01T06:41:35;34.50;;;17.67;;
35239;SDS011;21376;50.954;4.716;2023-03-01T06:44:04;34.20;;;18.02;;
35239;SDS011;21376;50.954;4.716;2023-03-01T06:48:59;32.30;;;17.42;;
35239;SDS011;21376;50.954;4.716;2023-03-01T06:53:59;39.35;;;22.08;;
35239;SDS011;21376;50.954;4.716;2023-03-01T06:56:37;33.10;;;17.98;;
35239;SDS011;21376;50.954;4.716;2023-03-01T06:59:06;35.72;;;18.30;;
35239;SDS011;21376;50.954;4.716;2023-03-01T07:01:35;43.30;;;17.80;;
35239;SDS011;21376;50.954;4.716;2023-03-01T07:04:01;35.03;;;18.42;;
35239;SDS011;21376;50.954;4.716;2023-03-01T07:06:30;43.13;;;17.52;;
35239;SDS011;21376;50.954;4.716;2023-03-01T07:09:02;36.67;;;17.80;;
35239;SDS011;21376;50.954;4.716;2023-03-01T07:13:57;39.80;;;19.48;;
35239;SDS011;21376;50.954;4.716;2023-03-01T07:16:26;41.90;;;18.80;;
35239;SDS011;21376;50.954;4.716;2023-03-01T07:18:52;40.00;;;18.40;;
35239;SDS011;21376;50.954;4.716;2023-03-01T07:21:19;32.65;;;18.02;;
35239;SDS011;21376;50.954;4.716;2023-03-01T07:26:18;34.83;;;18.98;;
35239;SDS011;21376;50.954;4.716;2023-03-01T07:28:44;44.97;;;25.30;;
35239;SDS011;21376;50.954;4.716;2023-03-01T07:31:13;35.30;;;19.73;;
35239;SDS011;21376;50.954;4.716;2023-03-01T07:36:10;21.40;;;14.32;;
35239;SDS011;21376;50.954;4.716;2023-03-01T07:38:36;25.63;;;15.45;;
35239;SDS011;21376;50.954;4.716;2023-03-01T07:41:05;25.52;;;16.83;;
35239;SDS011;21376;50.954;4.716;2023-03-01T07:43:37;24.58;;;14.63;;
35239;SDS011;21376;50.954;4.716;2023-03-01T07:46:06;23.00;;;13.82;;
35239;SDS011;21376;50.954;4.716;2023-03-01T07:48:32;19.63;;;13.57;;
35239;SDS011;21376;50.954;4.716;2023-03-01T07:51:12;17.67;;;12.30;;
35239;SDS011;21376;50.954;4.716;2023-03-01T07:53:41;20.08;;;11.77;;
35239;SDS011;21376;50.954;4.716;2023-03-01T07:56:10;16.80;;;12.20;;
35239;SDS011;21376;50.954;4.716;2023-03-01T07:58:38;14.60;;;11.85;;
35239;SDS011;21376;50.954;4.716;2023-03-01T08:01:07;16.75;;;12.23;;
35239;SDS011;21376;50.954;4.716;2023-03-01T08:03:41;18.48;;;12.40;;
35239;SDS011;21376;50.954;4.716;2023-03-01T08:08:40;18.13;;;11.27;;
35239;SDS011;21376;50.954;4.716;2023-03-01T08:11:10;16.67;;;11.32;;
35239;SDS011;21376;50.954;4.716;2023-03-01T08:13:37;16.02;;;10.63;;
35239;SDS011;21376;50.954;4.716;2023-03-01T08:16:12;13.88;;;11.63;;
35239;SDS011;21376;50.954;4.716;2023-03-01T08:18:45;18.17;;;12.00;;
35239;SDS011;21376;50.954;4.716;2023-03-01T08:21:12;19.67;;;11.95;;
35239;SDS011;21376;50.954;4.716;2023-03-01T08:23:45;17.67;;;11.40;;
35239;SDS011;21376;50.954;4.716;2023-03-01T08:26:13;16.45;;;11.27;;
35239;SDS011;21376;50.954;4.716;2023-03-01T08:28:41;11.63;;;10.43;;
35239;SDS011;21376;50.954;4.716;2023-03-01T08:31:15;15.70;;;11.68;;
35239;SDS011;21376;50.954;4.716;2023-03-01T08:33:45;15.65;;;10.82;;
35239;SDS011;21376;50.954;4.716;2023-03-01T08:36:17;15.52;;;11.13;;
35239;SDS011;21376;50.954;4.716;2023-03-01T08:38:44;16.95;;;11.02;;
35239;SDS011;21376;50.954;4.716;2023-03-01T08:41:12;13.93;;;11.10;;
35239;SDS011;21376;50.954;4.716;2023-03-01T08:43:41;17.02;;;11.15;;
35239;SDS011;21376;50.954;4.716;2023-03-01T08:46:08;16.45;;;11.15;;
35239;SDS011;21376;50.954;4.716;2023-03-01T08:48:34;16.15;;;11.07;;
35239;SDS011;21376;50.954;4.716;2023-03-01T08:51:11;18.48;;;12.43;;
35239;SDS011;21376;50.954;4.716;2023-03-01T08:53:44;18.05;;;12.10;;
35239;SDS011;21376;50.954;4.716;2023-03-01T08:56:10;17.77;;;11.70;;
35239;SDS011;21376;50.954;4.716;2023-03-01T08:58:37;15.50;;;10.93;;
35239;SDS011;21376;50.954;4.716;2023-03-01T09:01:08;17.05;;;11.57;;
35239;SDS011;21376;50.954;4.716;2023-03-01T09:03:39;15.25;;;10.75;;
35239;SDS011;21376;50.954;4.716;2023-03-01T09:06:05;15.85;;;10.38;;
35239;SDS011;21376;50.954;4.716;2023-03-01T09:11:09;14.65;;;10.85;;
35239;SDS011;21376;50.954;4.716;2023-03-01T09:13:36;16.42;;;10.68;;
35239;SDS011;21376;50.954;4.716;2023-03-01T09:16:06;13.75;;;10.60;;
35239;SDS011;21376;50.954;4.716;2023-03-01T09:18:38;15.15;;;12.25;;
35239;SDS011;21376;50.954;4.716;2023-03-01T09:21:10;13.75;;;10.80;;
35239;SDS011;21376;50.954;4.716;2023-03-01T09:23:41;15.63;;;10.70;;
35239;SDS011;21376;50.954;4.716;2023-03-01T09:26:13;15.85;;;10.88;;
35239;SDS011;21376;50.954;4.716;2023-03-01T09:28:45;18.35;;;12.02;;
35239;SDS011;21376;50.954;4.716;2023-03-01T09:31:11;15.02;;;11.80;;
35239;SDS011;21376;50.954;4.716;2023-03-01T09:33:41;17.38;;;11.55;;
35239;SDS011;21376;50.954;4.716;2023-03-01T09:38:40;17.05;;;11.77;;
35239;SDS011;21376;50.954;4.716;2023-03-01T09:41:11;15.88;;;11.55;;
35239;SDS011;21376;50.954;4.716;2023-03-01T09:46:43;13.82;;;11.10;;
35239;SDS011;21376;50.954;4.716;2023-03-01T09:49:25;15.75;;;11.45;;
35239;SDS011;21376;50.954;4.716;2023-03-01T09:54:37;15.30;;;10.98;;
35239;SDS011;21376;50.954;4.716;2023-03-01T09:57:05;21.63;;;15.60;;
35239;SDS011;21376;50.954;4.716;2023-03-01T10:02:30;46.45;;;31.58;;
35239;SDS011;21376;50.954;4.716;2023-03-01T10:05:05;27.92;;;18.77;;
35239;SDS011;21376;50.954;4.716;2023-03-01T10:10:27;14.60;;;12.25;;
35239;SDS011;21376;50.954;4.716;2023-03-01T10:12:59;16.63;;;11.98;;
35239;SDS011;21376;50.954;4.716;2023-03-01T10:15:39;16.92;;;12.20;;
35239;SDS011;21376;50.954;4.716;2023-03-01T10:29:17;15.85;;;11.38;;
35239;SDS011;21376;50.954;4.716;2023-03-01T10:31:49;15.00;;;10.77;;
35239;SDS011;21376;50.954;4.716;2023-03-01T10:34:20;15.15;;;11.00;;
35239;SDS011;21376;50.954;4.716;2023-03-01T10:36:51;17.55;;;11.13;;
35239;SDS011;21376;50.954;4.716;2023-03-01T10:39:23;14.55;;;11.70;;
35239;SDS011;21376;50.954;4.716;2023-03-01T10:41:58;14.15;;;10.80;;
35239;SDS011;21376;50.954;4.716;2023-03-01T10:44:42;16.13;;;11.23;;
35239;SDS011;21376;50.954;4.716;2023-03-01T10:47:18;15.60;;;11.35;;
35239;SDS011;21376;50.954;4.716;2023-03-01T10:49:51;16.25;;;11.52;;
35239;SDS011;21376;50.954;4.716;2023-03-01T10:52:23;15.85;;;10.50;;
35239;SDS011;21376;50.954;4.716;2023-03-01T10:54:56;16.63;;;10.57;;
35239;SDS011;21376;50.954;4.716;2023-03-01T10:57:32;17.00;;;11.48;;
35239;SDS011;21376;50.954;4.716;2023-03-01T11:00:21;15.88;;;10.73;;
35239;SDS011;21376;50.954;4.716;2023-03-01T11:03:00;15.75;;;11.30;;
35239;SDS011;21376;50.954;4.716;2023-03-01T11:05:34;14.68;;;11.40;;
35239;SDS011;21376;50.954;4.716;2023-03-01T11:08:06;14.98;;;11.57;;
35239;SDS011;21376;50.954;4.716;2023-03-01T11:10:35;15.15;;;11.13;;
35239;SDS011;21376;50.954;4.716;2023-03-01T11:13:13;14.70;;;10.50;;
35239;SDS011;21376;50.954;4.716;2023-03-01T11:16:03;13.55;;;10.27;;
35239;SDS011;21376;50.954;4.716;2023-03-01T11:18:34;14.02;;;10.45;;
35239;SDS011;21376;50.954;4.716;2023-03-01T11:21:06;13.90;;;10.65;;
35239;SDS011;21376;50.954;4.716;2023-03-01T11:23:35;13.27;;;10.55;;
35239;SDS011;21376;50.954;4.716;2023-03-01T11:26:07;17.45;;;11.80;;
35239;SDS011;21376;50.954;4.716;2023-03-01T11:28:37;12.00;;;10.20;;
35239;SDS011;21376;50.954;4.716;2023-03-01T11:31:10;14.77;;;9.38;;
35239;SDS011;21376;50.954;4.716;2023-03-01T11:33:53;12.63;;;9.98;;
35239;SDS011;21376;50.954;4.716;2023-03-01T11:36:45;12.57;;;10.27;;
35239;SDS011;21376;50.954;4.716;2023-03-01T11:42:19;13.23;;;9.82;;
35239;SDS011;21376;50.954;4.716;2023-03-01T11:45:06;14.63;;;10.07;;
35239;SDS011;21376;50.954;4.716;2023-03-01T11:50:49;15.35;;;9.90;;
35239;SDS011;21376;50.954;4.716;2023-03-01T11:53:28;14.05;;;9.82;;
35239;SDS011;21376;50.954;4.716;2023-03-01T12:07:39;13.02;;;9.60;;
35239;SDS011;21376;50.954;4.716;2023-03-01T12:10:46;13.90;;;10.27;;
35239;SDS011;21376;50.954;4.716;2023-03-01T12:16:48;12.23;;;9.45;;
35239;SDS011;21376;50.954;4.716;2023-03-01T12:19:50;14.18;;;10.32;;
35239;SDS011;21376;50.954;4.716;2023-03-01T12:22:37;14.75;;;9.77;;
35239;SDS011;21376;50.954;4.716;2023-03-01T12:33:14;14.60;;;10.40;;
35239;SDS011;21376;50.954;4.716;2023-03-01T12:41:54;15.93;;;10.23;;
35239;SDS011;21376;50.954;4.716;2023-03-01T12:50:05;15.77;;;11.23;;
35239;SDS011;21376;50.954;4.716;2023-03-01T12:53:04;15.25;;;10.70;;
35239;SDS011;21376;50.954;4.716;2023-03-01T12:55:33;14.68;;;10.60;;
35239;SDS011;21376;50.954;4.716;2023-03-01T13:04:05;11.77;;;10.30;;
35239;SDS011;21376;50.954;4.716;2023-03-01T13:06:54;14.07;;;10.68;;
35239;SDS011;21376;50.954;4.716;2023-03-01T13:10:15;12.90;;;10.65;;
35239;SDS011;21376;50.954;4.716;2023-03-01T13:17:48;15.82;;;10.32;;
35239;SDS011;21376;50.954;4.716;2023-03-01T13:20:20;18.05;;;11.48;;
35239;SDS011;21376;50.954;4.716;2023-03-01T13:29:11;15.80;;;10.82;;
35239;SDS011;21376;50.954;4.716;2023-03-01T13:33:53;17.33;;;11.68;;
35239;SDS011;21376;50.954;4.716;2023-03-01T13:39:30;20.25;;;11.68;;
35239;SDS011;21376;50.954;4.716;2023-03-01T13:41:56;21.70;;;11.82;;
35239;SDS011;21376;50.954;4.716;2023-03-01T13:47:08;19.27;;;12.25;;
35239;SDS011;21376;50.954;4.716;2023-03-01T13:49:43;19.75;;;11.80;;
35239;SDS011;21376;50.954;4.716;2023-03-01T13:52:23;17.92;;;11.75;;
35239;SDS011;21376;50.954;4.716;2023-03-01T13:55:02;15.82;;;11.73;;
35239;SDS011;21376;50.954;4.716;2023-03-01T13:57:33;20.90;;;11.57;;
35239;SDS011;21376;50.954;4.716;2023-03-01T14:00:01;18.80;;;11.70;;
35239;SDS011;21376;50.954;4.716;2023-03-01T14:02:31;14.73;;;10.63;;
35239;SDS011;21376;50.954;4.716;2023-03-01T14:04:58;20.05;;;11.20;;
35239;SDS011;21376;50.954;4.716;2023-03-01T14:07:26;19.02;;;11.02;;
35239;SDS011;21376;50.954;4.716;2023-03-01T14:10:01;19.38;;;11.40;;
35239;SDS011;21376;50.954;4.716;2023-03-01T14:18:04;19.83;;;12.02;;
35239;SDS011;21376;50.954;4.716;2023-03-01T14:23:25;15.82;;;10.85;;
35239;SDS011;21376;50.954;4.716;2023-03-01T14:25:58;17.33;;;11.25;;
35239;SDS011;21376;50.954;4.716;2023-03-01T14:28:27;17.10;;;11.27;;
35239;SDS011;21376;50.954;4.716;2023-03-01T14:31:01;18.80;;;11.50;;
35239;SDS011;21376;50.954;4.716;2023-03-01T14:33:29;15.40;;;10.85;;
35239;SDS011;21376;50.954;4.716;2023-03-01T14:36:06;16.23;;;11.00;;
35239;SDS011;21376;50.954;4.716;2023-03-01T14:38:35;17.05;;;11.07;;
35239;SDS011;21376;50.954;4.716;2023-03-01T14:41:03;20.95;;;11.55;;
35239;SDS011;21376;50.954;4.716;2023-03-01T14:43:33;16.45;;;11.50;;
35239;SDS011;21376;50.954;4.716;2023-03-01T14:46:00;16.27;;;11.05;;
35239;SDS011;21376;50.954;4.716;2023-03-01T14:48:26;16.63;;;10.93;;
35239;SDS011;21376;50.954;4.716;2023-03-01T14:50:54;14.63;;;10.38;;
35239;SDS011;21376;50.954;4.716;2023-03-01T14:53:28;14.77;;;10.52;;
35239;SDS011;21376;50.954;4.716;2023-03-01T14:56:01;17.95;;;10.68;;
35239;SDS011;21376;50.954;4.716;2023-03-01T14:58:28;17.88;;;10.73;;
35239;SDS011;21376;50.954;4.716;2023-03-01T15:01:01;15.30;;;9.68;;
35239;SDS011;21376;50.954;4.716;2023-03-01T15:03:44;15.90;;;9.82;;
35239;SDS011;21376;50.954;4.716;2023-03-01T15:06:14;12.63;;;8.80;;
35239;SDS011;21376;50.954;4.716;2023-03-01T15:08:47;15.23;;;9.23;;
35239;SDS011;21376;50.954;4.716;2023-03-01T15:11:24;18.30;;;9.90;;
35239;SDS011;21376;50.954;4.716;2023-03-01T15:13:58;12.95;;;9.60;;
35239;SDS011;21376;50.954;4.716;2023-03-01T15:18:54;12.75;;;9.43;;
35239;SDS011;21376;50.954;4.716;2023-03-01T15:21:25;15.90;;;9.40;;
35239;SDS011;21376;50.954;4.716;2023-03-01T15:24:01;19.08;;;9.70;;
35239;SDS011;21376;50.954;4.716;2023-03-01T15:26:36;11.60;;;8.57;;
35239;SDS011;21376;50.954;4.716;2023-03-01T15:32:01;11.13;;;8.27;;
35239;SDS011;21376;50.954;4.716;2023-03-01T15:34:31;13.90;;;9.23;;
35239;SDS011;21376;50.954;4.716;2023-03-01T15:37:06;14.98;;;10.05;;
35239;SDS011;21376;50.954;4.716;2023-03-01T15:39:54;14.82;;;8.68;;
35239;SDS011;21376;50.954;4.716;2023-03-01T15:50:43;14.27;;;8.98;;
35239;SDS011;21376;50.954;4.716;2023-03-01T15:53:11;13.32;;;8.63;;
35239;SDS011;21376;50.954;4.716;2023-03-01T15:55:40;16.10;;;9.27;;
35239;SDS011;21376;50.954;4.716;2023-03-01T15:58:10;17.98;;;10.68;;
35239;SDS011;21376;50.954;4.716;2023-03-01T16:00:38;14.82;;;9.18;;
35239;SDS011;21376;50.954;4.716;2023-03-01T16:03:06;14.10;;;8.63;;
35239;SDS011;21376;50.954;4.716;2023-03-01T16:05:37;11.05;;;8.18;;
35239;SDS011;21376;50.954;4.716;2023-03-01T16:08:04;14.32;;;9.02;;
35239;SDS011;21376;50.954;4.716;2023-03-01T16:10:33;13.48;;;9.10;;
35239;SDS011;21376;50.954;4.716;2023-03-01T16:13:00;13.70;;;9.07;;
35239;SDS011;21376;50.954;4.716;2023-03-01T16:15:32;15.02;;;9.05;;
35239;SDS011;21376;50.954;4.716;2023-03-01T16:18:13;14.70;;;9.40;;
35239;SDS011;21376;50.954;4.716;2023-03-01T16:23:10;14.85;;;9.55;;
35239;SDS011;21376;50.954;4.716;2023-03-01T16:25:36;13.30;;;8.70;;
35239;SDS011;21376;50.954;4.716;2023-03-01T16:28:03;13.93;;;9.40;;
35239;SDS011;21376;50.954;4.716;2023-03-01T16:30:32;18.23;;;9.55;;
35239;SDS011;21376;50.954;4.716;2023-03-01T16:32:58;19.63;;;9.15;;
35239;SDS011;21376;50.954;4.716;2023-03-01T16:35:26;16.52;;;9.00;;
35239;SDS011;21376;50.954;4.716;2023-03-01T16:40:28;14.82;;;9.20;;
35239;SDS011;21376;50.954;4.716;2023-03-01T16:42:54;19.48;;;9.68;;
35239;SDS011;21376;50.954;4.716;2023-03-01T16:45:24;12.75;;;9.00;;
35239;SDS011;21376;50.954;4.716;2023-03-01T16:47:54;17.08;;;8.98;;
35239;SDS011;21376;50.954;4.716;2023-03-01T16:50:20;14.35;;;9.05;;
35239;SDS011;21376;50.954;4.716;2023-03-01T16:52:47;18.80;;;10.68;;
35239;SDS011;21376;50.954;4.716;2023-03-01T16:55:15;16.63;;;10.07;;
35239;SDS011;21376;50.954;4.716;2023-03-01T16:57:41;23.08;;;11.48;;
35239;SDS011;21376;50.954;4.716;2023-03-01T17:02:38;18.33;;;9.35;;
35239;SDS011;21376;50.954;4.716;2023-03-01T17:05:06;16.52;;;10.35;;
35239;SDS011;21376;50.954;4.716;2023-03-01T17:07:33;18.60;;;10.00;;
35239;SDS011;21376;50.954;4.716;2023-03-01T17:10:03;17.15;;;9.95;;
35239;SDS011;21376;50.954;4.716;2023-03-01T17:12:33;21.90;;;9.55;;
35239;SDS011;21376;50.954;4.716;2023-03-01T17:14:59;16.00;;;9.95;;
35239;SDS011;21376;50.954;4.716;2023-03-01T17:17:26;13.93;;;8.80;;
35239;SDS011;21376;50.954;4.716;2023-03-01T17:19:53;16.08;;;10.15;;
35239;SDS011;21376;50.954;4.716;2023-03-01T17:22:21;17.90;;;11.18;;
35239;SDS011;21376;50.954;4.716;2023-03-01T17:24:47;17.90;;;9.98;;
35239;SDS011;21376;50.954;4.716;2023-03-01T17:27:16;17.83;;;10.27;;
35239;SDS011;21376;50.954;4.716;2023-03-01T17:32:13;19.05;;;11.07;;
35239;SDS011;21376;50.954;4.716;2023-03-01T17:34:39;15.57;;;9.40;;
35239;SDS011;21376;50.954;4.716;2023-03-01T17:37:05;18.70;;;10.98;;
35239;SDS011;21376;50.954;4.716;2023-03-01T17:39:33;15.30;;;9.80;;
35239;SDS011;21376;50.954;4.716;2023-03-01T17:42:03;20.75;;;11.30;;
35239;SDS011;21376;50.954;4.716;2023-03-01T17:44:31;16.55;;;11.82;;
35239;SDS011;21376;50.954;4.716;2023-03-01T17:47:01;18.05;;;10.75;;
35239;SDS011;21376;50.954;4.716;2023-03-01T17:49:28;19.63;;;11.73;;
35239;SDS011;21376;50.954;4.716;2023-03-01T17:52:01;18.02;;;11.02;;
35239;SDS011;21376;50.954;4.716;2023-03-01T17:54:50;18.13;;;11.40;;
35239;SDS011;21376;50.954;4.716;2023-03-01T17:57:16;17.70;;;11.68;;
35239;SDS011;21376;50.954;4.716;2023-03-01T17:59:43;18.70;;;11.77;;
35239;SDS011;21376;50.954;4.716;2023-03-01T18:02:10;16.65;;;11.55;;
35239;SDS011;21376;50.954;4.716;2023-03-01T18:04:37;15.75;;;10.80;;
35239;SDS011;21376;50.954;4.716;2023-03-01T18:07:06;17.48;;;10.10;;
35239;SDS011;21376;50.954;4.716;2023-03-01T18:09:32;15.40;;;10.60;;
35239;SDS011;21376;50.954;4.716;2023-03-01T18:11:58;19.50;;;11.30;;
35239;SDS011;21376;50.954;4.716;2023-03-01T18:14:24;18.42;;;11.48;;
35239;SDS011;21376;50.954;4.716;2023-03-01T18:16:55;25.77;;;12.95;;
35239;SDS011;21376;50.954;4.716;2023-03-01T18:19:21;21.52;;;11.80;;
35239;SDS011;21376;50.954;4.716;2023-03-01T18:24:17;39.30;;;19.40;;
35239;SDS011;21376;50.954;4.716;2023-03-01T18:26:43;38.65;;;17.17;;
35239;SDS011;21376;50.954;4.716;2023-03-01T18:29:12;37.10;;;18.08;;
35239;SDS011;21376;50.954;4.716;2023-03-01T18:34:10;19.10;;;11.85;;
35239;SDS011;21376;50.954;4.716;2023-03-01T18:36:38;21.60;;;12.82;;